Time;durP1;ratioP1;P1;durP2;ratioP2;P2;SDS_P1;SDS_P2;PMS_P1;PMS_P2;Temp;Humidity;BMP_temperature;BMP_pressure;BME280_temperature;BME280_humidity;BME280_pressure;Samples;Min_cycle;Max_cycle;Signal;HPM_P1;HPM_P2
2023/06/03 00:00:13;;;;;;;;;;;;;;;14.46;68.28;102073.06;4938078;28;19974;-68
2023/06/03 00:02:39;;;;;;;;;;;;;;;14.43;68.60;102070.72;4944387;28;19927;-68
2023/06/03 00:05:04;;;;;;;;;;;;;;;14.40;68.08;102068.34;4943542;29;19933;-69
2023/06/03 00:07:30;;;;;;;;;;;;;;;14.40;68.50;102067.50;4944104;28;20132;-68
2023/06/03 00:09:55;;;;;;;;;;;;;;;14.37;67.92;102066.00;4944480;28;20463;-68
2023/06/03 00:12:20;;;;;;;;;;;;;;;14.36;68.25;102075.03;4943856;28;19927;-68
2023/06/03 00:14:46;;;;;;;;;;;;;;;14.35;68.26;102073.34;4938783;28;20400;-68
2023/06/03 00:17:11;;;;;;;;;;;;;;;14.32;68.36;102076.34;4938353;29;20045;-67
2023/06/03 00:19:37;;;;;;;;;;;;;;;14.32;68.48;102076.34;4942062;28;19934;-69
2023/06/03 00:22:02;;;;;;;;;;;;;;;14.30;68.11;102073.00;4944113;28;20065;-68
2023/06/03 00:24:27;;;;;;;;;;;;;;;14.28;68.43;102069.66;4941097;28;19926;-68
2023/06/03 00:26:53;;;;;;;;;;;;;;;14.28;68.76;102069.66;4947087;28;19938;-68
2023/06/03 00:29:18;;;;;;;;;;;;;;;14.26;68.73;102075.19;4934114;28;20400;-68
2023/06/03 00:31:43;;;;;;;;;;;;;;;14.24;68.63;102071.00;4947119;29;20363;-68
2023/06/03 00:34:09;;;;;;;;;;;;;;;14.21;69.02;102072.16;4940734;28;19926;-68
2023/06/03 00:36:35;;;;;;;;;;;;;;;14.20;68.85;102072.34;4939015;29;20375;-68
2023/06/03 00:39:00;;;;;;;;;;;;;;;14.17;69.63;102072.66;4937445;28;19997;-67
2023/06/03 00:41:26;;;;;;;;;;;;;;;14.14;69.15;102073.81;4937010;28;20059;-68
2023/06/03 00:43:51;;;;;;;;;;;;;;;14.10;69.30;102075.13;4943779;28;19950;-68
2023/06/03 00:46:19;;;;;;;;;;;;;;;14.08;69.56;102076.31;4943523;28;20393;-68
2023/06/03 00:48:44;;;;;;;;;;;;;;;14.06;69.45;102070.28;4937982;28;20274;-68
2023/06/03 00:51:10;;;;;;;;;;;;;;;14.05;69.90;102068.63;4941900;28;20026;-68
2023/06/03 00:53:35;;;;;;;;;;;;;;;14.03;69.54;102066.09;4941153;28;20352;-69
2023/06/03 00:56:00;;;;;;;;;;;;;;;14.02;69.65;102071.63;4942404;28;20005;-68
2023/06/03 00:58:26;;;;;;;;;;;;;;;13.99;69.54;102064.75;4935221;28;19919;-68
2023/06/03 01:00:51;;;;;;;;;;;;;;;13.94;69.55;102065.25;4947689;28;19922;-68
2023/06/03 01:03:19;;;;;;;;;;;;;;;13.91;69.43;102067.41;4938149;28;20404;-68
2023/06/03 01:05:45;;;;;;;;;;;;;;;13.88;69.25;102065.91;4946619;28;19978;-68
2023/06/03 01:08:26;;;;;;;;;;;;;;;13.84;69.40;102071.72;4938835;28;19918;-68
2023/06/03 01:11:00;;;;;;;;;;;;;;;13.76;69.56;102061.84;4942083;28;19925;-68
2023/06/03 01:13:37;;;;;;;;;;;;;;;13.74;69.82;102058.50;4941180;28;19923;-67
2023/06/03 01:16:04;;;;;;;;;;;;;;;13.70;69.81;102064.34;4936696;28;19919;-68
2023/06/03 01:18:31;;;;;;;;;;;;;;;13.68;69.90;102064.50;4944951;28;20484;-68
2023/06/03 01:20:59;;;;;;;;;;;;;;;13.62;69.76;102065.97;4941781;28;19919;-68
2023/06/03 01:23:28;;;;;;;;;;;;;;;13.58;70.34;102067.28;4947461;28;19933;-67
2023/06/03 01:25:56;;;;;;;;;;;;;;;13.54;70.58;102070.44;4941947;28;20001;-68
2023/06/03 01:28:23;;;;;;;;;;;;;;;13.50;70.70;102063.75;4943916;28;19922;-68
2023/06/03 01:30:48;;;;;;;;;;;;;;;13.50;70.43;102069.06;4948477;28;19950;-69
2023/06/03 01:33:13;;;;;;;;;;;;;;;13.46;70.22;102073.06;4948508;28;20551;-68
2023/06/03 01:35:39;;;;;;;;;;;;;;;13.45;70.38;102074.06;4942176;28;19919;-67
2023/06/03 01:38:05;;;;;;;;;;;;;;;13.43;70.65;102076.88;4940506;28;19919;-67
2023/06/03 01:40:30;;;;;;;;;;;;;;;13.40;70.35;102077.22;4943486;28;19918;-67
2023/06/03 01:42:55;;;;;;;;;;;;;;;13.38;70.71;102075.69;4939496;28;20300;-68
2023/06/03 01:45:21;;;;;;;;;;;;;;;13.36;70.58;102077.69;4939581;28;20496;-68
2023/06/03 01:47:46;;;;;;;;;;;;;;;13.33;70.73;102079.69;4932476;28;19954;-68
2023/06/03 01:50:11;;;;;;;;;;;;;;;13.32;70.80;102071.84;4936264;28;19918;-68
2023/06/03 01:52:36;;;;;;;;;;;;;;;13.30;71.22;102076.50;4950713;28;20399;-67
2023/06/03 01:55:03;;;;;;;;;;;;;;;13.28;71.23;102073.97;4936147;28;20442;-68
2023/06/03 01:57:28;;;;;;;;;;;;;;;13.24;71.53;102077.09;4938286;29;19919;-68
2023/06/03 01:59:53;;;;;;;;;;;;;;;13.21;71.41;102074.75;4937477;28;19926;-68
2023/06/03 02:02:18;;;;;;;;;;;;;;;13.19;71.71;102080.25;4948424;28;19914;-68
2023/06/03 02:04:45;;;;;;;;;;;;;;;13.15;71.83;102073.53;4934826;28;19982;-68
2023/06/03 02:07:10;;;;;;;;;;;;;;;13.12;71.60;102068.50;4933183;28;19930;-69
2023/06/03 02:09:36;;;;;;;;;;;;;;;13.10;72.00;102070.50;4946203;28;19914;-67
2023/06/03 02:12:01;;;;;;;;;;;;;;;13.07;72.04;102073.47;4939115;28;19922;-67
2023/06/03 02:14:27;;;;;;;;;;;;;;;13.05;72.10;102064.81;4939257;28;20707;-68
2023/06/03 02:16:52;;;;;;;;;;;;;;;13.03;72.09;102061.47;4938124;28;19914;-68
2023/06/03 02:19:19;;;;;;;;;;;;;;;13.01;71.88;102066.94;4940805;28;19919;-68
2023/06/03 02:21:44;;;;;;;;;;;;;;;13.00;71.94;102065.25;4941328;28;19923;-68
2023/06/03 02:24:10;;;;;;;;;;;;;;;12.98;72.14;102061.91;4940964;28;20404;-68
2023/06/03 02:26:36;;;;;;;;;;;;;;;12.96;72.04;102055.91;4940124;28;19919;-68
2023/06/03 02:29:02;;;;;;;;;;;;;;;12.95;71.89;102061.38;4935719;28;19919;-68
2023/06/03 02:31:27;;;;;;;;;;;;;;;12.94;71.98;102063.22;4942780;28;19919;-67
2023/06/03 02:33:52;;;;;;;;;;;;;;;12.93;71.99;102063.38;4947299;28;20018;-68
2023/06/03 02:36:18;;;;;;;;;;;;;;;12.90;72.17;102056.53;4945750;28;19915;-68
2023/06/03 02:38:43;;;;;;;;;;;;;;;12.87;72.16;102056.00;4941650;28;19919;-68
2023/06/03 02:41:09;;;;;;;;;;;;;;;12.85;72.10;102056.16;4948468;28;20451;-68
2023/06/03 02:43:34;;;;;;;;;;;;;;;12.83;72.24;102060.81;4941026;28;19922;-67
2023/06/03 02:45:59;;;;;;;;;;;;;;;12.82;72.30;102055.63;4939069;28;19941;-68
2023/06/03 02:48:24;;;;;;;;;;;;;;;12.82;72.18;102059.13;4944087;28;19918;-68
2023/06/03 02:50:50;;;;;;;;;;;;;;;12.83;72.16;102055.47;4946799;28;20019;-68
2023/06/03 02:53:17;;;;;;;;;;;;;;;12.83;71.89;102060.81;4944441;28;19946;-68
2023/06/03 02:55:42;;;;;;;;;;;;;;;12.82;71.72;102063.63;4945753;28;19914;-67
2023/06/03 02:58:07;;;;;;;;;;;;;;;12.80;71.61;102054.97;4937009;28;20037;-68
2023/06/03 03:00:32;;;;;;;;;;;;;;;12.79;71.78;102058.63;4938112;28;19918;-67
2023/06/03 03:02:58;;;;;;;;;;;;;;;12.77;71.66;102063.25;4940959;28;19962;-68
2023/06/03 03:05:26;;;;;;;;;;;;;;;12.75;71.80;102066.09;4946272;28;19918;-66
2023/06/03 03:07:51;;;;;;;;;;;;;;;12.73;71.68;102069.91;4946061;28;20030;-68
2023/06/03 03:10:16;;;;;;;;;;;;;;;12.69;72.18;102067.53;4933254;28;20494;-67
2023/06/03 03:12:41;;;;;;;;;;;;;;;12.66;72.39;102064.31;4937290;28;19915;-67
2023/06/03 03:15:07;;;;;;;;;;;;;;;12.64;71.91;102072.47;4943854;28;19926;-66
2023/06/03 03:17:32;;;;;;;;;;;;;;;12.60;71.99;102059.63;4942019;28;20349;-67
2023/06/03 03:19:57;;;;;;;;;;;;;;;12.57;72.22;102066.09;4940998;28;19918;-67
2023/06/03 03:22:23;;;;;;;;;;;;;;;12.52;72.34;102071.06;4933957;28;19998;-68
2023/06/03 03:24:50;;;;;;;;;;;;;;;12.50;72.21;102065.03;4940535;28;19918;-66
2023/06/03 03:27:15;;;;;;;;;;;;;;;12.46;72.46;102062.84;4944224;28;19919;-68
2023/06/03 03:29:44;;;;;;;;;;;;;;;12.42;72.72;102072.94;4943155;28;19930;-66
2023/06/03 03:32:09;;;;;;;;;;;;;;;12.41;72.86;102073.94;4941426;29;19974;-68
2023/06/03 03:34:36;;;;;;;;;;;;;;;12.38;72.43;102071.56;4933843;28;20296;-68
2023/06/03 03:37:02;;;;;;;;;;;;;;;12.36;72.45;102077.06;4938306;28;19954;-67
2023/06/03 03:39:28;;;;;;;;;;;;;;;12.35;72.40;102070.06;4927179;29;19918;-68
2023/06/03 03:41:53;;;;;;;;;;;;;;;12.36;72.31;102081.53;4939555;28;19978;-67
2023/06/03 03:44:18;;;;;;;;;;;;;;;12.35;72.77;102075.38;4945833;28;19926;-68
2023/06/03 03:46:58;;;;;;;;;;;;;;;12.37;72.59;102080.56;4944708;28;19930;-68
2023/06/03 03:49:27;;;;;;;;;;;;;;;12.36;72.69;102085.03;4940314;28;20013;-67
2023/06/03 03:51:52;;;;;;;;;;;;;;;12.36;72.87;102084.22;4942363;28;19919;-68
2023/06/03 03:54:21;;;;;;;;;;;;;;;12.34;73.05;102076.38;4938530;28;20472;-68
2023/06/03 03:56:46;;;;;;;;;;;;;;;12.35;72.84;102079.88;4936675;28;20588;-67
2023/06/03 03:59:16;;;;;;;;;;;;;;;12.36;73.02;102073.56;4939030;28;19930;-67
2023/06/03 04:01:43;;;;;;;;;;;;;;;12.36;73.25;102084.22;4940055;28;19923;-67
2023/06/03 04:04:10;;;;;;;;;;;;;;;12.35;73.26;102082.53;4937557;28;19926;-67
2023/06/03 04:06:37;;;;;;;;;;;;;;;12.35;72.94;102083.38;4947560;28;19941;-67
2023/06/03 04:09:05;;;;;;;;;;;;;;;12.34;73.07;102076.38;4945144;28;19930;-68
2023/06/03 04:11:35;;;;;;;;;;;;;;;12.34;73.35;102076.38;4949534;28;20053;-67
2023/06/03 04:14:01;;;;;;;;;;;;;;;12.34;72.88;102084.38;4941061;28;19923;-67
2023/06/03 04:16:45;;;;;;;;;;;;;;;12.35;73.06;102082.53;4930675;29;19926;-67
2023/06/03 04:19:19;;;;;;;;;;;;;;;12.35;73.15;102086.03;4944085;28;19923;-67
2023/06/03 04:21:44;;;;;;;;;;;;;;;12.35;73.29;102086.03;4950415;28;19926;-67
2023/06/03 04:24:10;;;;;;;;;;;;;;;12.36;73.33;102078.88;4944421;28;20493;-68
2023/06/03 04:26:35;;;;;;;;;;;;;;;12.36;73.22;102079.72;4941005;28;19915;-67
2023/06/03 04:29:01;;;;;;;;;;;;;;;12.37;72.93;102086.72;4943073;28;20385;-68
2023/06/03 04:31:26;;;;;;;;;;;;;;;12.39;73.19;102089.22;4947903;28;20005;-67
2023/06/03 04:33:51;;;;;;;;;;;;;;;12.39;73.26;102089.22;4945098;28;19926;-67
2023/06/03 04:36:16;;;;;;;;;;;;;;;12.40;72.74;102094.41;4940086;28;20312;-67
2023/06/03 04:38:41;;;;;;;;;;;;;;;12.41;72.84;102093.41;4945113;28;19926;-67
2023/06/03 04:41:10;;;;;;;;;;;;;;;12.45;72.91;102095.81;4943841;28;20340;-68
2023/06/03 04:43:38;;;;;;;;;;;;;;;12.48;73.03;102101.66;4944455;29;20076;-67
2023/06/03 04:46:04;;;;;;;;;;;;;;;12.50;72.94;102093.50;4935954;28;20451;-67
2023/06/03 04:48:30;;;;;;;;;;;;;;;12.53;72.63;102095.88;4937980;28;19922;-67
2023/06/03 04:50:55;;;;;;;;;;;;;;;12.57;72.34;102097.25;4939494;28;19961;-66
2023/06/03 04:53:20;;;;;;;;;;;;;;;12.60;72.52;102097.75;4944242;28;20285;-68
2023/06/03 04:55:46;;;;;;;;;;;;;;;12.64;72.33;102090.28;4948395;28;19945;-67
2023/06/03 04:58:11;;;;;;;;;;;;;;;12.69;71.86;102101.34;4941398;28;19919;-67
2023/06/03 05:00:37;;;;;;;;;;;;;;;12.74;71.44;102093.75;4940214;28;19919;-67
2023/06/03 05:03:08;;;;;;;;;;;;;;;12.80;71.33;102097.59;4937121;29;19994;-67
2023/06/03 05:05:33;;;;;;;;;;;;;;;12.86;70.91;102096.97;4948774;28;19919;-67
2023/06/03 05:07:58;;;;;;;;;;;;;;;12.90;70.60;102103.69;4945878;28;19918;-67
2023/06/03 05:10:24;;;;;;;;;;;;;;;12.95;70.07;102096.88;4938765;28;19925;-67
2023/06/03 05:12:49;;;;;;;;;;;;;;;13.01;70.01;102101.63;4944524;28;20001;-67
2023/06/03 05:15:14;;;;;;;;;;;;;;;13.03;69.28;102099.63;4940371;28;20393;-66
2023/06/03 05:17:39;;;;;;;;;;;;;;;13.09;69.33;102098.16;4943445;28;19915;-67
2023/06/03 05:20:06;;;;;;;;;;;;;;;13.12;68.82;102094.34;4936505;28;20569;-67
2023/06/03 05:22:31;;;;;;;;;;;;;;;13.16;68.49;102093.88;4939835;29;19958;-67
2023/06/03 05:24:56;;;;;;;;;;;;;;;13.22;68.70;102093.28;4947185;28;20008;-67
2023/06/03 05:27:22;;;;;;;;;;;;;;;13.27;68.33;102092.78;4945019;28;20304;-68
2023/06/03 05:29:47;;;;;;;;;;;;;;;13.32;68.16;102098.53;4942789;28;19942;-67
2023/06/03 05:32:12;;;;;;;;;;;;;;;13.37;68.34;102095.38;4941199;29;19919;-68
2023/06/03 05:34:37;;;;;;;;;;;;;;;13.39;67.46;102101.38;4947281;28;19922;-67
2023/06/03 05:37:03;;;;;;;;;;;;;;;13.41;67.13;102099.41;4945381;28;20432;-66
2023/06/03 05:39:28;;;;;;;;;;;;;;;13.44;67.14;102099.06;4948073;28;19985;-66
2023/06/03 05:41:53;;;;;;;;;;;;;;;13.49;67.01;102102.94;4945190;28;19918;-67
2023/06/03 05:44:18;;;;;;;;;;;;;;;13.52;66.43;102099.94;4939878;28;19995;-67
2023/06/03 05:46:43;;;;;;;;;;;;;;;13.57;65.78;102099.47;4941913;28;19985;-67
2023/06/03 05:49:08;;;;;;;;;;;;;;;13.61;65.61;102104.34;4948044;28;20384;-67
2023/06/03 05:51:34;;;;;;;;;;;;;;;13.66;65.91;102109.22;4944895;28;19934;-68
2023/06/03 05:53:59;;;;;;;;;;;;;;;13.72;65.62;102103.22;4945078;28;20013;-67
2023/06/03 05:56:24;;;;;;;;;;;;;;;13.79;65.46;102104.25;4945101;28;19926;-67
2023/06/03 05:58:49;;;;;;;;;;;;;;;13.85;65.57;102100.94;4947686;28;19950;-67
2023/06/03 06:01:15;;;;;;;;;;;;;;;13.91;65.33;102102.13;4942890;28;20001;-68
2023/06/03 06:03:41;;;;;;;;;;;;;;;13.98;65.21;102102.31;4939938;29;20385;-67
2023/06/03 06:06:06;;;;;;;;;;;;;;;14.04;64.74;102101.66;4938033;28;19923;-68
2023/06/03 06:08:32;;;;;;;;;;;;;;;14.10;64.08;102101.00;4942372;28;20436;-68
2023/06/03 06:10:57;;;;;;;;;;;;;;;14.13;63.51;102104.19;4941206;28;20495;-68
2023/06/03 06:13:22;;;;;;;;;;;;;;;14.18;63.33;102101.91;4925087;29;20333;-68
2023/06/03 06:16:16;;;;;;;;;;;;;;;14.22;63.04;102111.25;4937493;28;19915;-67
2023/06/03 06:18:42;;;;;;;;;;;;;;;14.31;62.99;102104.06;4926106;28;19922;-67
2023/06/03 06:21:07;;;;;;;;;;;;;;;14.39;62.87;102113.94;4942047;28;19970;-68
2023/06/03 06:23:32;;;;;;;;;;;;;;;14.46;62.18;102123.88;4939390;28;19914;-68
2023/06/03 06:25:57;;;;;;;;;;;;;;;14.52;61.65;102112.50;4942852;28;19918;-66
2023/06/03 06:28:26;;;;;;;;;;;;;;;14.57;61.16;102114.69;4939470;28;19973;-68
2023/06/03 06:30:52;;;;;;;;;;;;;;;14.65;61.08;102116.50;4944006;28;19925;-67
2023/06/03 06:33:18;;;;;;;;;;;;;;;14.70;61.06;102112.34;4943155;28;19923;-67
2023/06/03 06:35:43;;;;;;;;;;;;;;;14.77;60.53;102120.56;4939405;28;19961;-68
2023/06/03 06:38:08;;;;;;;;;;;;;;;14.85;60.39;102118.69;4944672;28;20332;-68
2023/06/03 06:40:34;;;;;;;;;;;;;;;14.89;59.76;102116.53;4941926;28;19927;-68
2023/06/03 06:43:00;;;;;;;;;;;;;;;14.96;59.94;102114.00;4936218;28;19923;-68
2023/06/03 06:45:27;;;;;;;;;;;;;;;15.02;58.95;102116.84;4944695;28;19925;-68
2023/06/03 06:47:58;;;;;;;;;;;;;;;15.07;58.86;102121.72;4943556;28;19922;-68
2023/06/03 06:50:44;;;;;;;;;;;;;;;15.12;58.73;102122.88;4938902;28;20017;-67
2023/06/03 06:53:09;;;;;;;;;;;;;;;15.23;58.77;102113.66;4942488;28;19927;-68
2023/06/03 06:55:39;;;;;;;;;;;;;;;15.29;58.43;102121.00;4949039;28;19925;-68
2023/06/03 06:58:06;;;;;;;;;;;;;;;15.37;57.52;102115.66;4938580;28;20407;-68
2023/06/03 07:00:31;;;;;;;;;;;;;;;15.45;57.04;102125.50;4942007;28;20253;-68
2023/06/03 07:02:57;;;;;;;;;;;;;;;15.52;56.31;102122.94;4940616;28;19937;-67
2023/06/03 07:05:22;;;;;;;;;;;;;;;15.59;56.15;102124.78;4943156;28;19919;-67
2023/06/03 07:07:48;;;;;;;;;;;;;;;15.65;55.50;102128.66;4945395;28;20564;-67
2023/06/03 07:10:18;;;;;;;;;;;;;;;15.73;55.28;102124.09;4949000;28;19914;-68
2023/06/03 07:12:44;;;;;;;;;;;;;;;15.83;54.68;102123.88;4932354;28;20431;-68
2023/06/03 07:15:09;;;;;;;;;;;;;;;15.92;54.81;102122.03;4937787;28;19966;-69
2023/06/03 07:17:35;;;;;;;;;;;;;;;15.98;54.06;102118.66;4942503;28;19925;-67
2023/06/03 07:20:04;;;;;;;;;;;;;;;16.04;53.44;102121.44;4937843;28;19950;-67
2023/06/03 07:22:29;;;;;;;;;;;;;;;16.10;53.23;102119.91;4938049;28;20005;-67
2023/06/03 07:24:54;;;;;;;;;;;;;;;16.18;53.83;102119.03;4931620;28;20537;-68
2023/06/03 07:27:22;;;;;;;;;;;;;;;16.26;52.71;102122.50;4939049;29;19948;-67
2023/06/03 07:29:47;;;;;;;;;;;;;;;16.32;51.92;102115.59;4943221;28;19915;-67
2023/06/03 07:32:13;;;;;;;;;;;;;;;16.37;51.19;102124.78;4934856;28;19926;-67
2023/06/03 07:34:39;;;;;;;;;;;;;;;16.45;51.51;102121.19;4938333;28;19926;-67
2023/06/03 07:37:09;;;;;;;;;;;;;;;16.51;51.39;102119.69;4923648;29;19929;-67
2023/06/03 07:39:35;;;;;;;;;;;;;;;16.56;50.76;102118.13;4939899;28;19954;-68
2023/06/03 07:42:00;;;;;;;;;;;;;;;16.64;50.93;102125.28;4954284;28;19957;-67
2023/06/03 07:44:37;;;;;;;;;;;;;;;16.73;50.39;102119.69;4946277;28;19972;-67
2023/06/03 07:47:02;;;;;;;;;;;;;;;16.81;49.63;102118.81;4939320;28;20036;-67
2023/06/03 07:49:27;;;;;;;;;;;;;;;16.89;49.94;102116.06;4940679;28;20377;-68
2023/06/03 07:51:53;;;;;;;;;;;;;;;16.97;49.06;102115.97;4941108;28;19925;-67
2023/06/03 07:54:19;;;;;;;;;;;;;;;17.06;49.26;102115.88;4946489;28;19919;-68
2023/06/03 07:56:44;;;;;;;;;;;;;;;17.15;48.89;102120.19;4944513;28;19919;-68
2023/06/03 07:59:11;;;;;;;;;;;;;;;17.22;48.27;102116.56;4940433;28;19942;-67
2023/06/03 08:01:36;;;;;;;;;;;;;;;17.33;48.37;102121.47;4944019;28;20390;-67
2023/06/03 08:04:26;;;;;;;;;;;;;;;17.41;47.40;102130.50;4943532;28;19993;-68
2023/06/03 08:06:52;;;;;;;;;;;;;;;17.47;47.47;102133.28;4937040;28;20395;-67
2023/06/03 08:09:28;;;;;;;;;;;;;;;17.52;46.15;102124.66;4941458;28;19925;-67
2023/06/03 08:11:54;;;;;;;;;;;;;;;17.60;45.91;102132.63;4937335;28;20668;-67
2023/06/03 08:14:23;;;;;;;;;;;;;;;17.65;45.35;102120.31;4945336;28;20010;-67
2023/06/03 08:16:48;;;;;;;;;;;;;;;17.71;44.37;102120.63;4946628;28;20622;-67
2023/06/03 08:19:13;;;;;;;;;;;;;;;17.80;44.19;102130.25;4951755;28;19915;-68
2023/06/03 08:21:39;;;;;;;;;;;;;;;17.86;43.86;102121.44;4941573;28;19942;-67
2023/06/03 08:24:05;;;;;;;;;;;;;;;17.98;44.18;102111.06;4946412;28;19969;-67
2023/06/03 08:26:30;;;;;;;;;;;;;;;18.07;43.77;102116.13;4952767;28;20415;-67
2023/06/03 08:28:55;;;;;;;;;;;;;;;18.14;42.98;102113.50;4947606;28;19914;-67
2023/06/03 08:31:20;;;;;;;;;;;;;;;18.19;42.18;102122.66;4943889;28;20005;-67
2023/06/03 08:33:45;;;;;;;;;;;;;;;18.26;41.29;102122.75;4948756;28;19923;-67
2023/06/03 08:36:11;;;;;;;;;;;;;;;18.33;40.97;102122.81;4946795;28;19921;-67
2023/06/03 08:38:37;;;;;;;;;;;;;;;18.43;41.28;102120.66;4951875;28;20056;-68
2023/06/03 08:41:02;;;;;;;;;;;;;;;18.52;40.37;102111.44;4948851;28;20303;-67
2023/06/03 08:43:33;;;;;;;;;;;;;;;18.54;39.79;102121.00;4946554;28;19921;-67
2023/06/03 08:46:18;;;;;;;;;;;;;;;18.65;40.61;102124.22;4943085;28;20291;-67
2023/06/03 08:48:47;;;;;;;;;;;;;;;18.79;40.04;102116.09;4943360;28;19974;-67
2023/06/03 08:51:14;;;;;;;;;;;;;;;18.96;39.48;102113.09;4941703;29;20572;-67
2023/06/03 08:53:52;;;;;;;;;;;;;;;19.11;38.82;102117.38;4948642;28;19926;-68
2023/06/03 08:56:18;;;;;;;;;;;;;;;19.26;39.07;102114.56;4944608;28;20347;-68
2023/06/03 08:59:10;;;;;;;;;;;;;;;19.39;38.65;102112.00;4933629;28;19915;-68
2023/06/03 09:01:37;;;;;;;;;;;;;;;19.46;38.19;102114.72;4926929;29;19914;-67
2023/06/03 09:04:02;;;;;;;;;;;;;;;19.47;38.31;102113.69;4940037;28;20021;-67
2023/06/03 09:06:27;;;;;;;;;;;;;;;19.50;37.68;102116.81;4939299;28;19966;-67
2023/06/03 09:08:53;;;;;;;;;;;;;;;19.49;37.68;102109.75;4938390;28;19922;-67
2023/06/03 09:11:18;;;;;;;;;;;;;;;19.56;38.24;102122.47;4939213;28;20013;-68
2023/06/03 09:13:44;;;;;;;;;;;;;;;19.69;38.12;102125.25;4933932;28;19978;-68
2023/06/03 09:16:10;;;;;;;;;;;;;;;19.87;38.08;102106.66;4941282;28;20449;-68
2023/06/03 09:18:35;;;;;;;;;;;;;;;19.91;37.52;102109.78;4932861;28;19926;-68
2023/06/03 09:21:00;;;;;;;;;;;;;;;19.84;36.70;102125.94;4942033;28;19915;-68
2023/06/03 09:23:26;;;;;;;;;;;;;;;19.77;36.94;102117.00;4935980;28;19922;-67
2023/06/03 09:25:51;;;;;;;;;;;;;;;19.83;37.33;102120.75;4935423;28;19962;-68
2023/06/03 09:28:16;;;;;;;;;;;;;;;20.04;36.86;102117.94;4943804;28;20273;-68
2023/06/03 09:30:41;;;;;;;;;;;;;;;20.24;37.03;102104.50;4943597;28;19918;-67
2023/06/03 09:33:07;;;;;;;;;;;;;;;20.22;36.58;102126.28;4939950;28;19921;-68
2023/06/03 09:35:32;;;;;;;;;;;;;;;20.24;36.71;102124.22;4941571;28;19919;-68
2023/06/03 09:37:59;;;;;;;;;;;;;;;20.36;36.98;102113.66;4946809;28;19914;-68
2023/06/03 09:40:26;;;;;;;;;;;;;;;20.19;36.21;102110.50;4940035;28;19958;-68
2023/06/03 09:42:51;;;;;;;;;;;;;;;20.19;36.85;102117.75;4941037;28;19922;-68
2023/06/03 09:45:32;;;;;;;;;;;;;;;20.34;36.51;102118.44;4944155;28;20343;-68
2023/06/03 09:47:59;;;;;;;;;;;;;;;20.42;36.48;102102.91;4946439;28;20396;-67
2023/06/03 09:50:25;;;;;;;;;;;;;;;20.45;37.00;102107.06;4940521;28;19915;-68
2023/06/03 09:52:51;;;;;;;;;;;;;;;20.32;35.96;102098.94;4936692;28;21301;-68
2023/06/03 09:55:17;;;;;;;;;;;;;;;20.23;35.99;102108.22;4936405;28;20346;-68
2023/06/03 09:57:59;;;;;;;;;;;;;;;20.21;36.28;102113.81;4936650;28;20211;-68
2023/06/03 10:00:24;;;;;;;;;;;;;;;20.46;36.48;102122.22;4934028;28;19915;-68
2023/06/03 10:02:49;;;;;;;;;;;;;;;20.78;35.93;102108.97;4947370;28;19925;-68
2023/06/03 10:05:29;;;;;;;;;;;;;;;21.09;35.98;102114.56;4940206;28;20563;-68
2023/06/03 10:07:55;;;;;;;;;;;;;;;21.40;34.89;102118.53;4940236;28;19954;-68
2023/06/03 10:10:21;;;;;;;;;;;;;;;21.51;34.98;102118.72;4935205;28;19954;-68
2023/06/03 10:12:48;;;;;;;;;;;;;;;21.52;34.71;102116.84;4944940;28;20317;-68
2023/06/03 10:15:13;;;;;;;;;;;;;;;21.60;34.19;102117.44;4930290;29;19970;-68
2023/06/03 10:17:44;;;;;;;;;;;;;;;21.79;34.11;102123.81;4943982;28;19914;-68
2023/06/03 10:20:10;;;;;;;;;;;;;;;21.91;34.10;102122.09;4940640;29;19930;-68
2023/06/03 10:22:35;;;;;;;;;;;;;;;22.03;33.43;102114.16;4938365;28;19918;-68
2023/06/03 10:25:02;;;;;;;;;;;;;;;22.15;32.29;102107.03;4938369;28;20373;-68
2023/06/03 10:27:28;;;;;;;;;;;;;;;22.27;30.84;102109.91;4933071;28;20439;-67
2023/06/03 10:29:56;;;;;;;;;;;;;;;22.38;30.58;102116.50;4942145;28;19923;-69
2023/06/03 10:32:22;;;;;;;;;;;;;;;22.46;30.56;102114.34;4942621;28;19915;-69
2023/06/03 10:34:47;;;;;;;;;;;;;;;22.53;29.76;102115.13;4937235;28;19955;-69
2023/06/03 10:37:13;;;;;;;;;;;;;;;22.59;29.15;102115.31;4939268;28;20328;-69
2023/06/03 10:39:40;;;;;;;;;;;;;;;22.59;29.02;102113.44;4941801;28;20021;-69
2023/06/03 10:42:06;;;;;;;;;;;;;;;22.64;28.36;102107.38;4943654;28;19919;-68
2023/06/03 10:44:32;;;;;;;;;;;;;;;22.68;28.81;102111.28;4936816;28;19922;-69
2023/06/03 10:46:59;;;;;;;;;;;;;;;22.71;28.12;102110.84;4934873;28;19925;-69
2023/06/03 10:49:27;;;;;;;;;;;;;;;22.76;28.22;102109.13;4945043;28;19915;-69
2023/06/03 10:51:55;;;;;;;;;;;;;;;22.89;27.96;102102.81;4932418;28;20336;-69
2023/06/03 10:54:39;;;;;;;;;;;;;;;22.98;28.60;102100.66;4941864;28;19937;-69
2023/06/03 10:57:08;;;;;;;;;;;;;;;23.02;28.59;102091.84;4939251;28;19919;-69
2023/06/03 10:59:44;;;;;;;;;;;;;;;23.11;28.43;102100.53;4935454;28;19958;-69
2023/06/03 11:02:09;;;;;;;;;;;;;;;23.16;27.56;102100.69;4934120;28;19923;-69
2023/06/03 11:04:36;;;;;;;;;;;;;;;23.19;27.62;102102.97;4932164;28;19926;-69
2023/06/03 11:07:03;;;;;;;;;;;;;;;23.23;26.74;102098.75;4938889;28;20296;-68
2023/06/03 11:09:31;;;;;;;;;;;;;;;23.26;26.62;102098.28;4944139;28;19919;-69
2023/06/03 11:12:03;;;;;;;;;;;;;;;23.28;27.19;102098.91;4935245;28;19919;-69
2023/06/03 11:14:38;;;;;;;;;;;;;;;23.23;27.29;102104.16;4950141;28;19918;-69
2023/06/03 11:17:03;;;;;;;;;;;;;;;23.20;27.19;102092.94;4938511;28;19922;-68
2023/06/03 11:19:31;;;;;;;;;;;;;;;23.23;26.10;102104.16;4940386;28;19973;-69
2023/06/03 11:21:57;;;;;;;;;;;;;;;23.27;26.52;102093.69;4934491;28;19915;-69
2023/06/03 11:24:37;;;;;;;;;;;;;;;23.22;26.81;102096.25;4942297;28;19915;-69
2023/06/03 11:27:19;;;;;;;;;;;;;;;23.30;26.79;102104.94;4940390;28;20399;-69
2023/06/03 11:30:05;;;;;;;;;;;;;;;23.41;26.14;102101.47;4942350;28;19922;-69
2023/06/03 11:32:35;;;;;;;;;;;;;;;23.53;26.14;102098.84;4942388;28;20421;-69
2023/06/03 11:35:03;;;;;;;;;;;;;;;23.55;25.90;102091.31;4939655;28;19923;-69
2023/06/03 11:37:40;;;;;;;;;;;;;;;23.53;25.91;102101.56;4940303;28;20507;-69
2023/06/03 11:40:12;;;;;;;;;;;;;;;23.45;26.24;102099.97;4933244;28;19919;-69
2023/06/03 11:42:46;;;;;;;;;;;;;;;23.38;26.49;102101.09;4940856;28;20277;-69
2023/06/03 11:45:21;;;;;;;;;;;;;;;23.43;25.93;102102.09;4931639;28;19954;-69
2023/06/03 11:47:47;;;;;;;;;;;;;;;23.52;25.48;102090.94;4938459;28;19941;-69
2023/06/03 11:50:12;;;;;;;;;;;;;;;23.55;25.41;102090.47;4944856;28;20337;-69
2023/06/03 11:52:37;;;;;;;;;;;;;;;23.63;25.70;102098.34;4940489;28;20289;-69
2023/06/03 11:55:04;;;;;;;;;;;;;;;23.69;25.86;102087.41;4938769;28;19926;-69
2023/06/03 11:57:29;;;;;;;;;;;;;;;23.77;25.82;102083.56;4938846;28;20169;-69
2023/06/03 11:59:54;;;;;;;;;;;;;;;23.81;25.41;102090.19;4942523;28;20472;-69
2023/06/03 12:02:19;;;;;;;;;;;;;;;23.80;25.23;102091.25;4940874;28;19918;-69
2023/06/03 12:04:46;;;;;;;;;;;;;;;23.82;25.27;102088.31;4942505;28;19923;-69
2023/06/03 12:07:12;;;;;;;;;;;;;;;23.89;25.37;102075.47;4941601;28;20052;-68
2023/06/03 12:09:37;;;;;;;;;;;;;;;23.95;26.01;102069.97;4941842;28;20021;-69
2023/06/03 12:12:07;;;;;;;;;;;;;;;24.01;25.93;102077.19;4946986;28;20026;-69
2023/06/03 12:14:33;;;;;;;;;;;;;;;24.04;25.90;102068.59;4940431;28;19918;-69
2023/06/03 12:17:31;;;;;;;;;;;;;;;24.05;26.06;102080.28;4936925;28;19926;-69
2023/06/03 12:19:57;;;;;;;;;;;;;;;24.01;26.07;102084.53;4918885;28;20055;-68
2023/06/03 12:22:23;;;;;;;;;;;;;;;24.06;25.83;102076.50;4941598;28;19922;-68
2023/06/03 12:24:49;;;;;;;;;;;;;;;24.09;25.81;102076.03;4942953;28;20240;-69
2023/06/03 12:27:19;;;;;;;;;;;;;;;24.15;25.84;102069.69;4944785;28;20368;-69
2023/06/03 12:29:46;;;;;;;;;;;;;;;23.99;25.32;102087.44;4942567;28;19973;-69
2023/06/03 12:32:12;;;;;;;;;;;;;;;23.76;25.43;102080.03;4949298;28;19965;-69
2023/06/03 12:34:37;;;;;;;;;;;;;;;23.67;26.59;102083.25;4942083;28;19950;-68